Time;durP1;ratioP1;P1;durP2;ratioP2;P2;SDS_P1;SDS_P2;PMS_P1;PMS_P2;Temp;Humidity;BMP_temperature;BMP_pressure;BME280_temperature;BME280_humidity;BME280_pressure;Samples;Min_cycle;Max_cycle;Signal;HPM_P1;HPM_P2
2021/08/31 00:00:12;;;;;;;;;;;17.50;99.90;;;;;;4982106;28;20486;-68
2021/08/31 00:02:37;;;;;;;;;;;17.50;99.90;;;;;;4982184;28;19947;-68
2021/08/31 00:05:03;;;;;;;;;;;17.50;99.90;;;;;;4983449;28;19953;-66
2021/08/31 00:07:29;;;;;;;;;;;17.40;99.90;;;;;;4982856;28;20030;-68
2021/08/31 00:09:54;;;;;;;;;;;17.40;99.90;;;;;;4949612;28;19984;-66
2021/08/31 00:12:20;;;;;;;;;;;17.40;99.90;;;;;;4981158;28;19949;-68
2021/08/31 00:14:45;;;;;;;;;;;17.40;99.90;;;;;;4982818;28;20669;-67
2021/08/31 00:17:13;;;;;;;;;;;17.40;99.90;;;;;;4981866;28;20722;-69
2021/08/31 00:19:38;;;;;;;;;;;17.40;99.90;;;;;;4979663;28;20338;-68
2021/08/31 00:22:04;;;;;;;;;;;17.30;99.90;;;;;;4983050;28;20039;-68
2021/08/31 00:24:29;;;;;;;;;;;17.30;99.90;;;;;;4982475;28;20366;-67
2021/08/31 00:26:55;;;;;;;;;;;17.30;99.90;;;;;;4980414;28;20006;-66
2021/08/31 00:29:20;;;;;;;;;;;17.30;99.90;;;;;;4981429;28;20895;-69
2021/08/31 00:31:46;;;;;;;;;;;17.20;99.90;;;;;;4978712;28;20046;-70
2021/08/31 00:34:12;;;;;;;;;;;17.20;99.90;;;;;;4982013;28;19959;-65
2021/08/31 00:36:37;;;;;;;;;;;17.20;99.90;;;;;;4983469;28;19952;-69
2021/08/31 00:39:03;;;;;;;;;;;17.20;99.90;;;;;;4968100;28;19957;-67
2021/08/31 00:41:28;;;;;;;;;;;17.20;99.90;;;;;;4978711;28;19954;-65
2021/08/31 00:43:54;;;;;;;;;;;17.20;99.90;;;;;;4982766;28;19987;-67
2021/08/31 00:46:21;;;;;;;;;;;17.20;99.90;;;;;;4981757;28;20027;-68
2021/08/31 00:48:47;;;;;;;;;;;17.20;99.90;;;;;;4984319;28;19976;-67
2021/08/31 00:51:13;;;;;;;;;;;17.20;99.90;;;;;;4984387;28;19992;-66
2021/08/31 00:53:39;;;;;;;;;;;17.10;99.90;;;;;;4982184;28;19959;-68
2021/08/31 00:56:07;;;;;;;;;;;17.10;99.90;;;;;;4980937;28;19953;-68
2021/08/31 00:58:32;;;;;;;;;;;17.10;99.90;;;;;;4967639;28;20022;-68
2021/08/31 01:00:58;;;;;;;;;;;17.10;99.90;;;;;;4981868;28;19955;-70
2021/08/31 01:03:24;;;;;;;;;;;17.10;99.90;;;;;;4981199;28;20036;-68
2021/08/31 01:05:50;;;;;;;;;;;17.00;99.90;;;;;;4981846;28;20318;-69
2021/08/31 01:08:16;;;;;;;;;;;17.10;99.90;;;;;;4968157;28;19952;-68
2021/08/31 01:10:42;;;;;;;;;;;17.00;99.90;;;;;;4983524;28;19954;-66
2021/08/31 01:13:07;;;;;;;;;;;17.00;99.90;;;;;;4982033;28;19948;-68
2021/08/31 01:15:33;;;;;;;;;;;17.00;99.90;;;;;;4980605;28;20054;-65
2021/08/31 01:18:15;;;;;;;;;;;17.00;99.90;;;;;;4980836;28;19956;-69
2021/08/31 01:20:41;;;;;;;;;;;17.00;99.90;;;;;;4979379;28;20006;-65
2021/08/31 01:23:07;;;;;;;;;;;16.90;99.90;;;;;;4982597;28;19956;-68
2021/08/31 01:25:32;;;;;;;;;;;16.90;99.90;;;;;;4979562;28;20146;-69
2021/08/31 01:27:58;;;;;;;;;;;16.90;99.90;;;;;;4962067;28;19952;-69
2021/08/31 01:30:23;;;;;;;;;;;16.90;99.90;;;;;;4983388;28;20460;-67
2021/08/31 01:32:49;;;;;;;;;;;16.90;99.90;;;;;;4980254;28;19991;-68
2021/08/31 01:35:15;;;;;;;;;;;16.90;99.90;;;;;;4976835;28;20428;-68
2021/08/31 01:37:40;;;;;;;;;;;16.90;99.90;;;;;;4982582;28;20046;-68
2021/08/31 01:40:06;;;;;;;;;;;16.90;99.90;;;;;;4985151;28;20055;-67
2021/08/31 01:42:31;;;;;;;;;;;16.80;99.90;;;;;;4977894;28;20421;-68
2021/08/31 01:44:57;;;;;;;22.48;8.65;;;16.80;99.90;;;;;;4977221;28;20052;-68
2021/08/31 01:47:23;;;;;;;21.23;8.68;;;16.80;99.90;;;;;;4981784;28;20188;-67
2021/08/31 01:49:48;;;;;;;25.48;8.68;;;16.80;99.90;;;;;;4979763;28;20182;-67
2021/08/31 01:52:14;;;;;;;22.95;8.35;;;16.80;99.90;;;;;;4983307;28;20208;-69
2021/08/31 01:54:40;;;;;;;22.75;8.30;;;16.80;99.90;;;;;;4982654;28;20200;-67
2021/08/31 01:57:05;;;;;;;21.23;8.15;;;16.70;99.90;;;;;;4983480;28;20221;-70
2021/08/31 01:59:31;;;;;;;19.42;7.95;;;16.70;99.90;;;;;;4984126;28;20273;-70
2021/08/31 02:01:57;;;;;;;24.10;8.43;;;16.70;99.90;;;;;;4985759;28;20221;-69
2021/08/31 02:04:22;;;;;;;20.90;8.30;;;16.70;99.90;;;;;;4981834;28;20189;-65
2021/08/31 02:06:48;;;;;;;20.00;8.02;;;16.70;99.90;;;;;;4968676;28;21048;-67
2021/08/31 02:09:13;;;;;;;22.00;8.05;;;16.60;99.90;;;;;;4985721;28;20193;-70
2021/08/31 02:11:39;;;;;;;21.67;8.25;;;16.70;99.90;;;;;;4981384;28;20669;-68
2021/08/31 02:14:05;;;;;;;20.83;8.70;;;16.60;99.90;;;;;;4982827;28;20230;-66
2021/08/31 02:16:33;;;;;;;23.65;7.97;;;16.60;99.90;;;;;;4983883;28;20189;-66
2021/08/31 02:18:59;;;;;;;24.42;8.75;;;16.60;99.90;;;;;;4982598;28;20189;-67
2021/08/31 02:21:24;;;;;;;20.50;8.48;;;16.60;99.90;;;;;;4985350;28;20748;-67
2021/08/31 02:23:50;;;;;;;22.15;8.13;;;16.60;99.90;;;;;;4985339;28;20740;-68
2021/08/31 02:26:15;;;;;;;24.63;8.77;;;16.50;99.90;;;;;;4982320;28;20209;-65
2021/08/31 02:28:41;;;;;;;17.58;8.45;;;16.50;99.90;;;;;;4982148;28;20210;-67
2021/08/31 02:31:07;;;;;;;17.80;8.23;;;16.50;99.90;;;;;;4981403;28;20197;-64
2021/08/31 02:33:32;;;;;;;30.13;8.52;;;16.50;99.90;;;;;;4976635;28;20202;-67
2021/08/31 02:35:58;;;;;;;21.60;8.73;;;16.50;99.90;;;;;;4964066;28;20198;-68
2021/08/31 02:38:23;;;;;;;18.92;7.90;;;16.50;99.90;;;;;;4984453;28;20693;-69
2021/08/31 02:40:49;;;;;;;22.52;8.27;;;16.40;99.90;;;;;;4964250;28;20184;-65
2021/08/31 02:43:16;;;;;;;25.67;8.40;;;16.40;99.90;;;;;;4981403;28;20181;-67
2021/08/31 02:45:41;;;;;;;20.67;8.00;;;16.40;99.90;;;;;;4966339;28;20193;-67
2021/08/31 02:48:07;;;;;;;20.50;8.27;;;16.40;99.90;;;;;;4967285;28;20681;-68
2021/08/31 02:50:32;;;;;;;23.65;7.93;;;16.40;99.90;;;;;;4984603;28;20220;-67
2021/08/31 02:52:58;;;;;;;22.90;7.88;;;16.40;99.90;;;;;;4984648;28;20221;-66
2021/08/31 02:55:24;;;;;;;15.77;8.07;;;16.40;99.90;;;;;;4981228;28;20537;-67
2021/08/31 02:57:49;;;;;;;20.02;8.27;;;16.40;99.90;;;;;;4984277;28;20232;-68
2021/08/31 03:00:19;;;;;;;23.40;7.93;;;16.40;99.90;;;;;;4966791;28;20235;-70
2021/08/31 03:02:46;;;;;;;17.95;7.57;;;16.40;99.90;;;;;;4978440;28;20302;-68
2021/08/31 03:05:12;;;;;;;19.77;7.53;;;16.40;99.90;;;;;;4967320;28;20192;-67
2021/08/31 03:07:38;;;;;;;27.33;8.93;;;16.40;99.90;;;;;;4984597;28;20240;-66
2021/08/31 03:10:04;;;;;;;20.25;8.02;;;16.40;99.90;;;;;;4981445;28;20579;-70
2021/08/31 03:12:30;;;;;;;22.25;8.02;;;16.40;99.90;;;;;;4982796;28;20194;-68
2021/08/31 03:14:55;;;;;;;19.65;7.50;;;16.40;99.90;;;;;;4984178;28;20228;-68
2021/08/31 03:17:21;;;;;;;22.65;7.18;;;16.40;99.90;;;;;;4964466;28;20253;-69
2021/08/31 03:19:46;;;;;;;18.95;7.25;;;16.30;99.90;;;;;;4983190;28;21575;-66
2021/08/31 03:22:12;;;;;;;23.27;7.57;;;16.30;99.90;;;;;;4984783;28;21275;-67
2021/08/31 03:24:38;;;;;;;21.45;7.80;;;16.30;99.90;;;;;;4963633;28;20189;-67
2021/08/31 03:27:05;;;;;;;23.35;7.05;;;16.30;99.90;;;;;;4980434;28;20190;-68
2021/08/31 03:29:31;;;;;;;26.38;7.68;;;16.30;99.90;;;;;;4983307;28;20231;-65
2021/08/31 03:31:57;;;;;;;18.65;7.40;;;16.30;99.90;;;;;;4978362;28;20217;-68
2021/08/31 03:34:23;;;;;;;21.33;6.88;;;16.30;99.90;;;;;;4968007;28;20201;-67
2021/08/31 03:36:50;;;;;;;19.42;7.03;;;16.30;99.90;;;;;;4984854;28;20201;-65
2021/08/31 03:39:16;;;;;;;17.15;7.40;;;16.20;99.90;;;;;;4981058;28;20542;-68
2021/08/31 03:41:41;;;;;;;20.95;6.70;;;16.20;99.90;;;;;;4980346;28;20197;-68
2021/08/31 03:44:08;;;;;;;22.38;7.15;;;16.20;99.90;;;;;;4980609;28;20532;-69
2021/08/31 03:46:33;;;;;;;15.75;6.15;;;16.20;99.90;;;;;;4979771;28;20204;-69
2021/08/31 03:49:00;;;;;;;22.55;6.78;;;16.20;99.90;;;;;;4984155;28;20667;-68
2021/08/31 03:51:25;;;;;;;22.45;7.43;;;16.20;99.90;;;;;;4983797;28;20181;-67
2021/08/31 03:53:51;;;;;;;23.85;7.70;;;16.20;99.90;;;;;;4979442;28;20193;-67
2021/08/31 03:56:16;;;;;;;24.10;7.32;;;16.20;99.90;;;;;;4984043;28;20199;-69
2021/08/31 03:58:42;;;;;;;14.43;6.90;;;16.20;99.90;;;;;;4983011;28;20267;-66
2021/08/31 04:01:08;;;;;;;18.38;6.88;;;16.20;99.90;;;;;;4961470;28;20247;-65
2021/08/31 04:03:33;;;;;;;25.52;7.28;;;16.20;99.90;;;;;;4983707;28;20700;-67
2021/08/31 04:05:59;;;;;;;23.42;6.85;;;16.20;99.90;;;;;;4983519;28;20192;-64
2021/08/31 04:08:25;;;;;;;24.42;6.85;;;16.20;99.90;;;;;;4980533;28;20228;-68
2021/08/31 04:10:50;;;;;;;18.35;6.88;;;16.20;99.90;;;;;;4981468;28;20651;-69
2021/08/31 04:13:18;;;;;;;17.45;6.90;;;16.20;99.90;;;;;;4983743;28;20196;-71
2021/08/31 04:15:45;;;;;;;20.10;6.90;;;16.20;99.90;;;;;;4980261;28;20200;-65
2021/08/31 04:18:10;;;;;;;19.27;6.50;;;16.20;99.90;;;;;;4983434;28;20256;-68
2021/08/31 04:20:36;;;;;;;17.30;6.80;;;16.20;99.90;;;;;;4980910;28;20189;-67
2021/08/31 04:23:02;;;;;;;23.58;6.97;;;16.20;99.90;;;;;;4980933;28;20192;-66
2021/08/31 04:25:28;;;;;;;20.63;6.82;;;16.20;99.90;;;;;;4982919;28;20677;-69
2021/08/31 04:27:53;;;;;;;20.83;6.45;;;16.20;99.90;;;;;;4981133;28;20193;-70
2021/08/31 04:30:19;;;;;;;24.83;7.78;;;16.10;99.90;;;;;;4980880;28;20191;-66
2021/08/31 04:32:46;;;;;;;20.30;7.25;;;16.10;99.90;;;;;;4981911;28;20567;-68
2021/08/31 04:35:11;;;;;;;22.70;6.78;;;16.10;99.90;;;;;;4983737;28;20197;-66
2021/08/31 04:37:37;;;;;;;27.38;7.25;;;16.10;99.90;;;;;;4980792;28;20375;-66
2021/08/31 04:40:03;;;;;;;20.52;6.55;;;16.10;99.90;;;;;;4984621;28;20197;-69
2021/08/31 04:42:29;;;;;;;22.27;7.18;;;16.10;99.90;;;;;;4980056;28;20189;-65
2021/08/31 04:44:55;;;;;;;22.50;7.72;;;16.10;99.90;;;;;;4963052;28;20190;-68
2021/08/31 04:47:20;;;;;;;21.33;7.50;;;16.10;99.90;;;;;;4983299;28;20582;-68
2021/08/31 04:49:46;;;;;;;17.67;6.95;;;16.10;99.90;;;;;;4978702;28;20195;-68
2021/08/31 04:52:13;;;;;;;24.73;7.20;;;16.00;99.90;;;;;;4974138;28;20186;-66
2021/08/31 04:54:38;;;;;;;26.20;7.25;;;16.10;99.90;;;;;;4981276;28;20228;-68
2021/08/31 04:57:04;;;;;;;24.13;7.72;;;16.00;99.90;;;;;;4975138;28;20738;-68
2021/08/31 04:59:30;;;;;;;17.75;7.20;;;16.00;99.90;;;;;;4980081;28;20217;-65
2021/08/31 05:01:56;;;;;;;32.22;7.22;;;16.00;99.90;;;;;;4974652;28;20294;-65
2021/08/31 05:04:27;;;;;;;26.38;7.25;;;16.00;99.90;;;;;;4979332;28;20196;-68
2021/08/31 05:06:53;;;;;;;24.95;7.38;;;16.00;99.90;;;;;;4982346;28;20221;-68
2021/08/31 05:09:19;;;;;;;24.80;7.38;;;16.00;99.90;;;;;;4981557;28;20197;-67
2021/08/31 05:11:44;;;;;;;20.48;7.65;;;16.00;99.90;;;;;;4976617;28;20189;-65
2021/08/31 05:14:10;;;;;;;24.02;7.60;;;16.00;99.90;;;;;;4981781;28;20230;-69
2021/08/31 05:16:36;;;;;;;22.48;6.20;;;16.00;99.90;;;;;;4979872;28;20650;-65
2021/08/31 05:19:02;;;;;;;22.83;6.78;;;16.00;99.90;;;;;;4962247;28;20193;-67
2021/08/31 05:21:28;;;;;;;21.15;7.22;;;16.00;99.90;;;;;;4980209;28;20187;-67
2021/08/31 05:23:56;;;;;;;19.80;7.07;;;16.00;99.90;;;;;;4981206;28;20185;-67
2021/08/31 05:26:28;;;;;;;20.17;7.30;;;16.00;99.90;;;;;;4962684;28;20268;-68
2021/08/31 05:28:54;;;;;;;28.35;6.75;;;16.00;99.90;;;;;;4985040;28;20272;-68
2021/08/31 05:31:20;;;;;;;24.63;6.78;;;16.00;99.90;;;;;;4982373;28;20189;-69
2021/08/31 05:33:45;;;;;;;22.23;7.18;;;16.10;99.90;;;;;;4966931;28;20196;-68
2021/08/31 05:36:11;;;;;;;19.08;6.88;;;16.10;99.90;;;;;;4983188;28;20186;-68
2021/08/31 05:38:36;;;;;;;25.17;5.85;;;16.10;99.90;;;;;;4986374;28;20569;-68
2021/08/31 05:41:02;;;;;;;23.52;7.55;;;16.10;99.90;;;;;;4981195;28;20272;-67
2021/08/31 05:43:28;;;;;;;21.20;6.82;;;16.10;99.90;;;;;;4982297;28;20186;-66
2021/08/31 05:45:54;;;;;;;22.10;6.78;;;16.10;99.90;;;;;;4985525;28;20190;-66
2021/08/31 05:48:20;;;;;;;28.13;6.65;;;16.10;99.90;;;;;;4982889;28;20196;-67
2021/08/31 05:50:46;;;;;;;23.45;6.55;;;16.20;99.90;;;;;;4982621;28;20191;-69
2021/08/31 05:53:11;;;;;;;27.52;6.57;;;16.20;99.90;;;;;;4982756;28;20193;-67
2021/08/31 05:55:37;;;;;;;18.80;6.65;;;16.20;99.90;;;;;;4964410;28;20197;-67
2021/08/31 05:58:03;;;;;;;20.27;6.90;;;16.30;99.90;;;;;;4983784;28;20210;-66
2021/08/31 06:00:28;;;;;;;22.77;6.28;;;16.20;99.90;;;;;;4966855;28;20239;-72
2021/08/31 06:02:55;;;;;;;20.92;7.75;;;16.30;99.90;;;;;;4984176;28;20193;-68
2021/08/31 06:05:20;;;;;;;25.08;6.45;;;16.30;99.90;;;;;;4984197;28;20853;-68
2021/08/31 06:07:46;;;;;;;21.50;6.15;;;16.30;99.90;;;;;;4985921;28;20280;-65
2021/08/31 06:10:14;;;;;;;18.33;5.72;;;16.40;99.90;;;;;;4981692;28;20248;-66
2021/08/31 06:12:40;;;;;;;20.27;5.78;;;16.40;99.90;;;;;;4981481;28;20672;-69
2021/08/31 06:15:06;;;;;;;18.52;5.95;;;16.40;99.90;;;;;;4983988;28;20244;-65
2021/08/31 06:17:33;;;;;;;22.50;5.82;;;16.40;99.90;;;;;;4981505;28;20271;-66
2021/08/31 06:19:59;;;;;;;18.67;5.65;;;16.50;99.90;;;;;;4981473;28;20197;-66
2021/08/31 06:22:24;;;;;;;24.60;5.95;;;16.50;99.90;;;;;;4984515;28;20185;-66
2021/08/31 06:24:50;;;;;;;18.77;5.72;;;16.60;99.90;;;;;;4983355;28;20574;-64
2021/08/31 06:27:16;;;;;;;22.42;6.43;;;16.60;99.90;;;;;;4980361;28;20197;-64
2021/08/31 06:29:41;;;;;;;23.85;6.07;;;16.60;99.90;;;;;;4984267;28;20189;-66
2021/08/31 06:32:07;;;;;;;22.65;6.20;;;16.70;99.90;;;;;;4977489;28;20193;-71
2021/08/31 06:34:33;;;;;;;23.38;5.90;;;16.70;99.90;;;;;;4982149;28;20212;-71
2021/08/31 06:37:01;;;;;;;19.65;5.57;;;16.80;99.90;;;;;;4980715;28;20244;-69
2021/08/31 06:39:27;;;;;;;15.88;4.78;;;16.90;99.90;;;;;;4965431;28;20185;-67
2021/08/31 06:41:52;;;;;;;18.83;5.63;;;17.00;99.90;;;;;;4979775;28;20196;-72
2021/08/31 06:44:18;;;;;;;25.48;5.95;;;17.00;99.90;;;;;;4979686;28;20231;-65
2021/08/31 06:46:44;;;;;;;18.77;6.00;;;17.10;99.90;;;;;;4980904;28;20182;-68
2021/08/31 06:49:10;;;;;;;24.00;6.13;;;17.10;99.90;;;;;;4983356;28;20268;-70
2021/08/31 06:51:36;;;;;;;17.15;5.72;;;17.20;99.90;;;;;;4981716;28;20187;-68
2021/08/31 06:54:01;;;;;;;;;;;17.20;99.90;;;;;;4966385;28;19991;-72
2021/08/31 06:56:27;;;;;;;;;;;17.20;99.90;;;;;;4983602;28;19991;-69
2021/08/31 06:58:52;;;;;;;;;;;17.20;99.90;;;;;;4977966;28;19945;-68
2021/08/31 07:01:18;;;;;;;;;;;17.30;99.90;;;;;;4964288;28;19971;-70
2021/08/31 07:03:44;;;;;;;;;;;17.30;99.90;;;;;;4978757;28;20032;-67
2021/08/31 07:06:09;;;;;;;;;;;17.30;99.90;;;;;;4982131;28;19960;-70
2021/08/31 07:08:35;;;;;;;;;;;17.30;99.90;;;;;;4984811;28;19952;-69
2021/08/31 07:11:00;;;;;;;;;;;17.40;99.90;;;;;;4980054;28;19956;-68
2021/08/31 07:13:26;;;;;;;;;;;17.40;99.90;;;;;;4983799;28;20413;-69
2021/08/31 07:15:51;;;;;;;;;;;17.50;99.90;;;;;;4983436;28;20039;-67
2021/08/31 07:18:18;;;;;;;;;;;17.60;99.90;;;;;;4981651;28;20265;-69
2021/08/31 07:20:43;;;;;;;;;;;17.60;99.90;;;;;;4981555;28;19948;-66
2021/08/31 07:23:11;;;;;;;;;;;17.60;99.90;;;;;;4982281;28;19947;-69
2021/08/31 07:25:37;;;;;;;;;;;17.70;99.90;;;;;;4980763;28;19952;-69
2021/08/31 07:28:03;;;;;;;19.92;5.72;;;17.80;99.90;;;;;;4984646;28;20058;-71
2021/08/31 07:30:28;;;;;;;22.60;5.97;;;17.80;99.90;;;;;;4966643;28;20646;-69
2021/08/31 07:32:54;;;;;;;19.00;5.35;;;17.80;99.90;;;;;;4982366;28;20177;-70
2021/08/31 07:35:19;;;;;;;22.10;5.38;;;17.80;99.90;;;;;;4983003;28;20182;-70
2021/08/31 07:37:45;;;;;;;17.20;5.32;;;17.80;99.90;;;;;;4983558;28;20205;-70
2021/08/31 07:40:11;;;;;;;19.63;5.47;;;17.90;99.90;;;;;;4982873;28;20272;-70
2021/08/31 07:42:37;;;;;;;17.20;4.60;;;17.90;99.90;;;;;;4964107;28;20640;-71
2021/08/31 07:45:07;;;;;;;21.15;5.55;;;17.90;99.90;;;;;;4963634;28;20263;-69
2021/08/31 07:47:33;;;;;;;19.23;5.78;;;18.00;99.90;;;;;;4981186;28;20189;-69
2021/08/31 07:49:59;;;;;;;18.27;5.03;;;18.10;99.90;;;;;;4982755;28;20847;-70
2021/08/31 07:52:25;;;;;;;12.68;4.30;;;18.20;99.90;;;;;;4965533;28;20198;-70
2021/08/31 07:54:51;;;;;;;13.40;4.97;;;18.30;99.90;;;;;;4981038;28;20695;-70
2021/08/31 07:57:16;;;;;;;16.75;4.93;;;18.30;99.90;;;;;;4983379;28;20299;-71
2021/08/31 07:59:42;;;;;;;16.90;5.43;;;18.40;99.90;;;;;;4981361;28;20665;-70
2021/08/31 08:02:08;;;;;;;18.40;5.47;;;18.40;99.90;;;;;;4979708;28;20181;-70
2021/08/31 08:04:33;;;;;;;19.25;5.25;;;18.60;99.90;;;;;;4966108;28;20223;-70
2021/08/31 08:06:59;;;;;;;15.25;5.03;;;18.60;99.90;;;;;;4983473;28;20616;-70
2021/08/31 08:09:24;;;;;;;18.25;5.63;;;18.70;99.90;;;;;;4979748;28;20197;-70
2021/08/31 08:11:50;;;;;;;24.35;6.10;;;18.80;99.90;;;;;;4967716;28;20177;-70
2021/08/31 08:14:16;;;;;;;17.75;5.70;;;18.90;99.90;;;;;;4975129;28;20225;-68
2021/08/31 08:16:41;;;;;;;19.60;4.68;;;18.90;99.90;;;;;;4981879;28;20818;-69
2021/08/31 08:19:07;;;;;;;22.55;6.00;;;19.00;99.90;;;;;;4982877;28;20185;-69
2021/08/31 08:21:33;;;;;;;17.17;4.82;;;19.10;99.90;;;;;;4983241;28;20212;-69
2021/08/31 08:23:59;;;;;;;16.95;5.15;;;19.10;99.90;;;;;;4984251;28;20276;-70
2021/08/31 08:26:24;;;;;;;21.05;5.60;;;19.20;99.90;;;;;;4986275;28;20319;-69
2021/08/31 08:28:50;;;;;;;24.25;6.47;;;19.20;99.90;;;;;;4984838;28;20654;-69
2021/08/31 08:31:17;;;;;;;16.70;5.07;;;19.20;99.90;;;;;;4986377;28;20185;-69
2021/08/31 08:33:42;;;;;;;20.80;5.65;;;19.20;99.90;;;;;;4984481;28;20189;-69
2021/08/31 08:36:08;;;;;;;19.05;5.10;;;19.20;99.90;;;;;;4965247;28;20185;-69
2021/08/31 08:38:35;;;;;;;19.70;6.05;;;19.20;99.90;;;;;;4981652;28;20936;-70
2021/08/31 08:41:05;;;;;;;26.45;6.10;;;19.20;99.90;;;;;;4988317;28;20185;-72
2021/08/31 08:43:32;;;;;;;16.70;5.60;;;19.10;99.90;;;;;;4981742;28;20189;-72
2021/08/31 08:46:02;;;;;;;21.27;5.80;;;19.10;99.90;;;;;;4964797;28;20260;-71
2021/08/31 08:48:28;;;;;;;17.23;6.00;;;19.00;99.90;;;;;;4965906;28;20189;-69
2021/08/31 08:50:55;;;;;;;18.77;5.53;;;19.00;99.90;;;;;;4984084;28;20196;-71
2021/08/31 08:53:21;;;;;;;18.95;6.15;;;19.00;99.90;;;;;;4979090;28;20216;-71
2021/08/31 08:55:48;;;;;;;17.63;5.60;;;19.00;99.90;;;;;;4967965;28;20195;-69
2021/08/31 08:58:14;;;;;;;13.98;5.05;;;19.00;99.90;;;;;;4984844;28;20213;-70
2021/08/31 09:01:05;;;;;;;22.35;5.70;;;18.90;99.90;;;;;;4964942;28;20411;-70
2021/08/31 09:03:33;;;;;;;16.92;5.35;;;19.00;99.90;;;;;;4987443;28;20193;-70
2021/08/31 09:06:09;;;;;;;13.98;5.47;;;18.90;99.90;;;;;;4984570;28;20185;-71
2021/08/31 09:08:36;;;;;;;20.20;5.80;;;19.00;99.90;;;;;;4982790;28;20202;-72
2021/08/31 09:11:23;;;;;;;14.20;5.25;;;19.00;99.90;;;;;;4985018;28;20211;-71
2021/08/31 09:13:51;;;;;;;16.17;5.50;;;19.00;99.90;;;;;;4981256;28;20217;-69
2021/08/31 09:16:26;;;;;;;22.65;6.05;;;19.00;99.90;;;;;;4987240;28;20215;-67
2021/08/31 09:18:53;;;;;;;23.63;6.95;;;19.00;99.90;;;;;;4985062;28;20212;-70
2021/08/31 09:21:29;;;;;;;19.42;6.05;;;19.00;99.90;;;;;;4990585;28;21016;-69
2021/08/31 09:23:57;;;;;;;17.15;5.03;;;19.10;99.90;;;;;;4986182;28;20193;-69
2021/08/31 09:26:35;;;;;;;19.60;5.35;;;19.10;99.90;;;;;;4987067;28;20277;-69
2021/08/31 09:29:12;;;;;;;16.58;5.03;;;19.20;99.90;;;;;;4969120;28;20280;-69
2021/08/31 09:32:07;;;;;;;17.92;5.68;;;19.20;99.90;;;;;;4985068;28;20248;-69
2021/08/31 09:34:42;;;;;;;17.80;5.38;;;19.20;99.90;;;;;;4984018;28;20197;-69
2021/08/31 09:37:34;;;;;;;15.95;5.20;;;19.20;99.90;;;;;;4989572;28;20205;-70
2021/08/31 09:40:05;;;;;;;14.90;5.00;;;19.20;99.70;;;;;;4990841;28;20190;-70
2021/08/31 09:42:31;;;;;;;18.23;5.75;;;19.30;99.70;;;;;;4989878;28;20182;-69
2021/08/31 09:45:02;;;;;;;17.35;5.50;;;19.40;99.50;;;;;;4986201;28;20196;-68
2021/08/31 09:47:35;;;;;;;17.85;4.63;;;19.40;99.30;;;;;;4987107;28;20189;-69
2021/08/31 09:50:05;;;;;;;17.85;5.50;;;19.40;99.10;;;;;;4990894;28;20194;-70
2021/08/31 09:52:31;;;;;;;18.35;5.57;;;19.50;99.10;;;;;;4986349;28;20706;-68
2021/08/31 09:54:57;;;;;;;15.60;5.35;;;19.60;99.00;;;;;;4986482;28;20232;-70
2021/08/31 09:57:27;;;;;;;;;;;19.70;98.90;;;;;;4967625;28;20257;-68
2021/08/31 09:59:52;;;;;;;;;;;19.80;98.80;;;;;;4987670;28;19944;-72
2021/08/31 10:02:18;;;;;;;;;;;20.10;98.50;;;;;;4988337;28;19917;-66
2021/08/31 10:04:43;;;;;;;;;;;20.30;98.20;;;;;;4981880;28;19910;-69
2021/08/31 10:07:09;;;;;;;;;;;20.50;97.70;;;;;;4986157;28;20287;-68
2021/08/31 10:09:37;;;;;;;;;;;20.70;97.40;;;;;;4980313;28;19925;-71
2021/08/31 10:12:07;;;;;;;10.32;3.75;;;21.00;97.00;;;;;;4985793;28;20186;-69
2021/08/31 10:14:43;;;;;;;15.20;3.67;;;21.30;96.40;;;;;;4983869;28;20234;-68
2021/08/31 10:17:11;;;;;;;10.57;4.50;;;21.70;95.70;;;;;;4987062;28;20213;-69
2021/08/31 10:19:40;;;;;;;12.95;4.13;;;21.90;95.10;;;;;;4982506;28;20709;-68
2021/08/31 10:22:07;;;;;;;15.40;4.47;;;22.10;94.30;;;;;;4986930;28;20185;-70
2021/08/31 10:24:33;;;;;;;21.67;4.63;;;22.30;93.70;;;;;;4986174;28;20199;-68
2021/08/31 10:27:35;;;;;;;12.85;4.57;;;22.40;93.20;;;;;;4986054;28;20668;-66
2021/08/31 10:30:22;;;;;;;11.55;3.70;;;22.40;92.60;;;;;;4990110;28;20192;-69
2021/08/31 10:32:50;;;;;;;12.13;3.72;;;22.60;92.30;;;;;;4979515;28;20196;-69
2021/08/31 10:35:39;;;;;;;9.88;3.35;;;22.80;91.90;;;;;;4987426;28;20708;-69
2021/08/31 10:38:13;;;;;;;17.15;4.60;;;22.90;91.30;;;;;;4986280;28;20300;-70
2021/08/31 10:40:39;;;;;;;17.52;4.43;;;23.00;90.70;;;;;;4990318;28;20220;-70
2021/08/31 10:43:12;;;;;;;17.13;4.75;;;23.00;90.40;;;;;;4987511;28;20186;-70
2021/08/31 10:45:41;;;;;;;12.95;4.55;;;23.00;90.00;;;;;;4984717;28;20181;-70
2021/08/31 10:48:22;;;;;;;17.05;4.40;;;23.00;89.80;;;;;;4968192;28;21003;-71
2021/08/31 10:51:14;;;;;;;13.82;4.70;;;22.90;89.60;;;;;;4967884;28;20267;-69
2021/08/31 10:53:48;;;;;;;17.42;4.45;;;22.80;89.60;;;;;;4968003;28;20678;-71
2021/08/31 10:56:22;;;;;;;13.40;4.20;;;22.60;89.80;;;;;;4988725;28;20197;-69
2021/08/31 10:59:03;;;;;;;16.02;4.43;;;22.60;90.10;;;;;;4978690;28;20667;-69
2021/08/31 11:01:37;;;;;;;18.75;4.68;;;22.50;90.10;;;;;;4966663;28;20193;-69
2021/08/31 11:04:27;;;;;;;17.63;5.20;;;22.50;90.10;;;;;;4982397;28;20193;-70
2021/08/31 11:07:00;;;;;;;18.10;5.88;;;22.40;90.00;;;;;;4970429;28;20189;-69
2021/08/31 11:09:27;;;;;;;18.40;4.95;;;22.40;90.00;;;;;;4983496;28;20204;-70
2021/08/31 11:12:19;;;;;;;19.17;6.60;;;22.30;90.00;;;;;;4981063;28;20304;-68
2021/08/31 11:14:49;;;;;;;15.50;4.78;;;22.20;90.00;;;;;;4973531;28;20257;-70
2021/08/31 11:17:32;;;;;;;19.27;4.97;;;22.20;90.10;;;;;;4963040;28;20208;-69
2021/08/31 11:20:16;;;;;;;12.27;4.70;;;22.10;90.00;;;;;;4981222;28;20181;-68
2021/08/31 11:22:42;;;;;;;15.43;4.68;;;22.00;90.00;;;;;;4982451;28;20248;-69
2021/08/31 11:25:08;;;;;;;13.25;4.57;;;22.00;90.00;;;;;;4983122;28;20612;-71
2021/08/31 11:27:53;;;;;;;14.55;5.13;;;22.20;90.10;;;;;;4983780;28;20303;-71
2021/08/31 11:30:20;;;;;;;13.73;4.85;;;22.50;90.00;;;;;;4981607;28;20192;-73
2021/08/31 11:32:46;;;;;;;14.13;4.10;;;22.80;89.30;;;;;;4982167;28;20201;-70
2021/08/31 11:35:12;;;;;;;;;;;23.20;88.40;;;;;;4984512;28;20503;-68
2021/08/31 11:37:51;;;;;;;14.38;4.85;;;23.50;86.80;;;;;;4968786;28;20191;-70
2021/08/31 11:40:24;;;;;;;;;;;23.70;85.20;;;;;;4979572;28;20268;-70
2021/08/31 11:42:51;;;;;;;;;;;23.70;84.50;;;;;;4983200;28;20395;-70
2021/08/31 11:45:16;;;;;;;;;;;23.70;83.90;;;;;;4987238;28;19917;-70
2021/08/31 11:47:42;;;;;;;;;;;23.80;83.50;;;;;;4971782;28;19914;-69
2021/08/31 11:50:08;;;;;;;;;;;23.80;83.20;;;;;;4966132;28;19917;-70
2021/08/31 11:52:33;;;;;;;;;;;23.90;83.00;;;;;;4980996;28;19910;-71
2021/08/31 11:54:59;;;;;;;15.95;4.25;;;23.90;82.50;;;;;;4963153;28;20372;-71
2021/08/31 11:57:32;;;;;;;17.83;4.38;;;23.80;82.10;;;;;;4984104;28;20243;-70
2021/08/31 11:59:58;;;;;;;18.38;5.18;;;23.60;81.90;;;;;;4984020;28;20253;-73
2021/08/31 12:02:26;;;;;;;16.95;4.45;;;23.50;82.10;;;;;;4983465;28;20186;-70
2021/08/31 12:04:55;;;;;;;12.30;4.03;;;23.50;82.50;;;;;;4984652;28;20231;-69
2021/08/31 12:07:30;;;;;;;16.08;4.78;;;23.40;82.80;;;;;;4981147;28;20185;-69
2021/08/31 12:10:26;;;;;;;18.25;4.60;;;23.40;83.00;;;;;;4984118;28;20204;-70
2021/08/31 12:12:52;;;;;;;;;;;23.40;83.10;;;;;;4968389;28;20835;-72
2021/08/31 12:15:23;;;;;;;22.13;4.40;;;23.20;83.40;;;;;;4966408;28;20395;-71
2021/08/31 12:17:59;;;;;;;16.27;3.83;;;23.10;83.40;;;;;;4964130;28;20237;-71
2021/08/31 12:20:25;;;;;;;;;;;23.00;83.40;;;;;;4983450;28;20181;-71
2021/08/31 12:22:51;;;;;;;;;;;23.00;83.20;;;;;;4980916;28;19997;-71
2021/08/31 12:25:18;;;;;;;;;;;22.90;83.30;;;;;;4982409;28;19921;-73
2021/08/31 12:27:44;;;;;;;;;;;22.90;83.20;;;;;;4986056;28;19961;-71
2021/08/31 12:30:10;;;;;;;;;;;22.90;82.70;;;;;;4979054;28;20334;-68
2021/08/31 12:32:36;;;;;;;;;;;23.00;82.40;;;;;;4981050;28;19989;-70
2021/08/31 12:35:45;;;;;;;;;;;22.90;81.90;;;;;;4985767;28;20044;-69
2021/08/31 12:38:13;;;;;;;;;;;22.90;82.10;;;;;;4872042;29;19972;-70
2021/08/31 12:40:42;;;;;;;;;;;22.90;82.30;;;;;;4871476;29;19922;-70
2021/08/31 12:43:10;;;;;;;;;;;22.80;82.00;;;;;;4930560;28;19925;-72
2021/08/31 12:45:37;;;;;;;16.48;4.13;;;22.80;82.30;;;;;;4980642;28;20653;-70
2021/08/31 12:48:03;;;;;;;;;;;22.80;82.50;;;;;;4982540;28;20194;-69
2021/08/31 12:50:31;;;;;;;14.93;3.88;;;22.70;82.70;;;;;;4980306;28;20007;-69
2021/08/31 12:52:57;;;;;;;11.48;3.90;;;22.70;83.10;;;;;;4980634;28;20673;-68
2021/08/31 12:55:28;;;;;;;15.75;4.13;;;22.60;83.20;;;;;;4966999;28;20178;-68
2021/08/31 12:57:55;;;;;;;11.52;3.80;;;22.60;83.50;;;;;;4983682;28;20288;-69
2021/08/31 13:00:25;;;;;;;18.75;4.18;;;22.50;83.50;;;;;;4980001;28;20197;-69
2021/08/31 13:02:55;;;;;;;13.05;3.97;;;22.50;83.50;;;;;;4966032;28;20203;-68